Time;durP1;ratioP1;P1;durP2;ratioP2;P2;SDS_P1;SDS_P2;PMS_P1;PMS_P2;Temp;Humidity;BMP_temperature;BMP_pressure;BME280_temperature;BME280_humidity;BME280_pressure;Samples;Min_cycle;Max_cycle;Signal;HPM_P1;HPM_P2
2021/06/23 00:01:52;;;;;;;10.52;1.80;;;13.80;99.90;;;;;;4992264;28;20049;-90
2021/06/23 00:04:18;;;;;;;9.10;1.80;;;13.80;99.90;;;;;;4960447;28;20421;-90
2021/06/23 00:06:44;;;;;;;10.50;1.73;;;13.80;99.90;;;;;;4944707;28;20379;-90
2021/06/23 00:09:10;;;;;;;13.13;1.52;;;13.80;99.90;;;;;;4975935;28;20133;-91
2021/06/23 00:11:41;;;;;;;11.38;1.92;;;13.70;99.90;;;;;;4960629;28;20046;-90
2021/06/23 00:14:07;;;;;;;15.57;2.17;;;13.70;99.90;;;;;;4976341;28;20049;-90
2021/06/23 00:16:33;;;;;;;10.70;1.70;;;13.70;99.90;;;;;;4960479;28;20397;-90
2021/06/23 00:18:59;;;;;;;8.40;1.83;;;13.70;99.90;;;;;;4993854;28;20038;-90
2021/06/23 00:21:25;;;;;;;15.55;1.98;;;13.70;99.90;;;;;;4960307;28;20066;-90
2021/06/23 00:23:51;;;;;;;7.85;1.60;;;13.70;99.90;;;;;;4976322;28;20038;-90
2021/06/23 00:26:17;;;;;;;13.30;2.22;;;13.60;99.90;;;;;;4960577;28;20497;-89
2021/06/23 00:28:42;;;;;;;10.95;1.63;;;13.60;99.90;;;;;;4976785;28;20121;-90
2021/06/23 00:31:08;;;;;;;7.57;1.70;;;13.60;99.90;;;;;;4960629;28;20076;-89
2021/06/23 00:33:37;;;;;;;6.88;1.40;;;13.60;99.90;;;;;;4960233;28;20482;-89
2021/06/23 00:36:03;;;;;;;14.63;2.55;;;13.60;99.90;;;;;;4993651;28;20054;-90
2021/06/23 00:38:29;;;;;;;10.43;1.70;;;13.60;99.90;;;;;;4960468;28;20042;-89
2021/06/23 00:40:55;;;;;;;10.25;1.70;;;13.60;99.90;;;;;;4975935;28;20589;-89
2021/06/23 00:43:22;;;;;;;15.00;1.88;;;13.60;99.90;;;;;;4975591;28;20038;-88
2021/06/23 00:45:48;;;;;;;10.43;1.35;;;13.60;99.90;;;;;;4960008;28;20046;-90
2021/06/23 00:48:28;;;;;;;15.52;2.67;;;13.60;99.90;;;;;;4975973;28;20470;-90
2021/06/23 00:50:59;;;;;;;7.93;1.70;;;13.60;99.90;;;;;;4975969;28;20117;-90
2021/06/23 00:53:25;;;;;;;14.52;1.60;;;13.60;99.90;;;;;;4996726;28;20092;-91
2021/06/23 00:55:53;;;;;;;16.67;2.10;;;13.60;99.90;;;;;;4947461;28;20069;-89
2021/06/23 00:58:20;;;;;;;11.93;3.28;;;13.60;99.90;;;;;;4979147;28;20092;-88
2021/06/23 01:00:47;;;;;;;11.73;2.38;;;13.50;99.90;;;;;;4979489;28;20038;-89
2021/06/23 01:03:13;;;;;;;14.73;2.35;;;13.50;99.90;;;;;;4962955;28;20053;-90
2021/06/23 01:05:40;;;;;;;9.80;1.60;;;13.60;99.90;;;;;;4979519;28;20072;-89
2021/06/23 01:08:08;;;;;;;18.48;2.50;;;13.60;99.90;;;;;;4978481;28;20530;-91
2021/06/23 01:10:35;;;;;;;14.98;1.77;;;13.50;99.90;;;;;;4979290;28;20428;-89
2021/06/23 01:13:25;;;;;;;6.47;1.50;;;13.60;99.90;;;;;;4963393;28;20054;-91
2021/06/23 01:15:54;;;;;;;10.57;1.70;;;13.50;99.90;;;;;;4996557;28;20049;-89
2021/06/23 01:18:20;;;;;;;14.88;2.05;;;13.50;99.90;;;;;;4978641;28;20050;-89
2021/06/23 01:20:47;;;;;;;11.73;2.00;;;13.50;99.90;;;;;;4996228;28;20046;-90
2021/06/23 01:23:14;;;;;;;11.23;2.20;;;13.50;99.90;;;;;;4978651;28;20100;-89
2021/06/23 01:25:44;;;;;;;13.70;1.60;;;13.50;99.90;;;;;;4996729;28;20050;-88
2021/06/23 01:28:10;;;;;;;;;;;13.50;99.90;;;;;;4963868;28;20046;-90
2021/06/23 01:30:36;;;;;;;8.90;1.80;;;13.50;99.90;;;;;;4996602;28;19929;-89
2021/06/23 01:33:04;;;;;;;14.82;1.88;;;13.50;99.90;;;;;;4978635;28;20498;-93
2021/06/23 01:35:31;;;;;;;27.70;3.05;;;13.50;99.90;;;;;;4979083;28;20516;-89
2021/06/23 01:38:00;;;;;;;11.55;1.67;;;13.50;99.90;;;;;;4979376;28;20474;-89
2021/06/23 01:40:27;;;;;;;10.98;2.67;;;13.50;99.90;;;;;;4978963;28;20058;-88
2021/06/23 01:42:53;;;;;;;10.05;1.80;;;13.50;99.90;;;;;;4979087;28;20042;-88
2021/06/23 01:45:19;;;;;;;11.82;2.15;;;13.50;99.90;;;;;;4996383;28;20050;-88
2021/06/23 01:47:45;;;;;;;12.82;1.83;;;13.50;99.90;;;;;;4996242;28;20056;-89
2021/06/23 01:50:12;;;;;;;11.57;1.73;;;13.50;99.90;;;;;;4962004;28;20113;-88
2021/06/23 01:52:39;;;;;;;10.50;1.90;;;13.50;99.90;;;;;;4995489;28;20038;-88
2021/06/23 01:55:06;;;;;;;13.77;2.03;;;13.50;99.90;;;;;;4995093;28;20046;-92
2021/06/23 01:57:39;;;;;;;10.60;2.17;;;13.50;99.90;;;;;;4961935;28;20121;-88
2021/06/23 02:00:06;;;;;;;10.05;1.73;;;13.50;99.90;;;;;;4993757;28;20132;-91
2021/06/23 02:02:43;;;;;;;10.95;3.63;;;13.40;99.90;;;;;;4993721;28;20096;-88
2021/06/23 02:05:41;;;;;;;8.43;1.92;;;13.40;99.90;;;;;;4994252;28;20046;-89
2021/06/23 02:08:22;;;;;;;8.05;1.85;;;13.50;99.90;;;;;;4994687;28;20093;-92
2021/06/23 02:11:31;;;;;;;20.60;2.20;;;13.40;99.90;;;;;;4994701;28;20042;-89
2021/06/23 02:14:27;;;;;;;17.40;2.30;;;13.40;99.90;;;;;;4985461;28;20081;-90
2021/06/23 02:16:55;;;;;;;12.43;1.92;;;13.40;99.90;;;;;;4994759;28;20045;-89
2021/06/23 02:19:22;;;;;;;12.15;2.90;;;13.40;99.90;;;;;;4994509;28;20047;-89
2021/06/23 02:21:48;;;;;;;11.23;2.25;;;13.40;99.90;;;;;;4994641;28;20181;-88
2021/06/23 02:24:16;;;;;;;10.65;1.83;;;13.40;99.90;;;;;;4994337;28;20047;-89
2021/06/23 02:26:42;;;;;;;10.90;2.05;;;13.40;99.90;;;;;;4994642;28;20042;-89
2021/06/23 02:29:08;;;;;;;6.20;1.65;;;13.40;99.90;;;;;;4962296;28;20053;-89
2021/06/23 02:31:39;;;;;;;8.90;1.90;;;13.40;99.90;;;;;;4978399;28;20372;-88
2021/06/23 02:34:10;;;;;;;11.05;1.92;;;13.40;99.90;;;;;;4994142;28;20124;-89
2021/06/23 02:36:37;;;;;;;7.95;1.65;;;13.40;99.90;;;;;;4995163;28;20045;-89
2021/06/23 02:39:04;;;;;;;10.82;1.85;;;13.40;99.90;;;;;;4993422;28;20046;-89
2021/06/23 02:41:31;;;;;;;10.60;1.90;;;13.40;99.90;;;;;;4994770;28;20043;-89
2021/06/23 02:44:01;;;;;;;10.65;2.13;;;13.40;99.90;;;;;;4993821;28;20129;-89
2021/06/23 02:46:28;;;;;;;6.35;1.73;;;13.40;99.90;;;;;;4977342;28;20650;-89
2021/06/23 02:48:54;;;;;;;14.02;1.80;;;13.40;99.90;;;;;;4994726;28;20046;-89
2021/06/23 02:51:22;;;;;;;9.55;1.80;;;13.40;99.90;;;;;;4977296;28;20042;-89
2021/06/23 02:53:49;;;;;;;9.50;1.85;;;13.40;99.90;;;;;;4977395;28;20049;-89
2021/06/23 02:56:16;;;;;;;15.95;4.15;;;13.40;99.90;;;;;;4992913;28;20046;-89
2021/06/23 02:58:43;;;;;;;9.80;1.90;;;13.40;99.90;;;;;;4993335;28;20046;-89
2021/06/23 03:01:14;;;;;;;6.75;1.63;;;13.40;99.90;;;;;;4976911;28;20050;-92
2021/06/23 03:03:40;;;;;;;;;;;13.40;99.90;;;;;;4977344;28;20097;-89
2021/06/23 03:06:07;;;;;;;12.25;1.88;;;13.40;99.90;;;;;;4993052;28;19928;-89
2021/06/23 03:08:34;;;;;;;19.58;1.90;;;13.40;99.90;;;;;;4977041;28;20066;-89
2021/06/23 03:11:00;;;;;;;13.38;1.65;;;13.40;99.90;;;;;;4994601;28;20431;-88
2021/06/23 03:13:27;;;;;;;9.57;1.70;;;13.40;99.90;;;;;;4976899;28;20053;-89
2021/06/23 03:15:55;;;;;;;5.15;1.48;;;13.40;99.90;;;;;;4992236;28;20049;-88
2021/06/23 03:18:21;;;;;;;10.63;1.58;;;13.40;99.90;;;;;;4992627;28;20046;-89
2021/06/23 03:20:48;;;;;;;7.65;2.08;;;13.40;99.90;;;;;;4977132;28;20492;-90
2021/06/23 03:23:14;;;;;;;9.48;1.92;;;13.40;99.90;;;;;;4993655;28;20050;-89
2021/06/23 03:25:40;;;;;;;7.32;1.23;;;13.40;99.90;;;;;;4993992;28;20536;-90
2021/06/23 03:28:06;;;;;;;9.77;1.95;;;13.40;99.90;;;;;;4994520;28;20041;-90
2021/06/23 03:30:32;;;;;;;8.27;1.80;;;13.40;99.90;;;;;;4977578;28;20103;-89
2021/06/23 03:32:58;;;;;;;13.13;1.90;;;13.40;99.90;;;;;;4993712;28;20118;-89
2021/06/23 03:39:05;;;;;;;7.38;1.88;;;13.40;99.90;;;;;;4993668;28;20100;-89
2021/06/23 03:41:31;;;;;;;11.35;1.80;;;13.40;99.90;;;;;;4993839;28;20421;-88
2021/06/23 03:43:56;;;;;;;13.50;2.03;;;13.40;99.90;;;;;;4977038;28;20054;-89
2021/06/23 03:46:22;;;;;;;14.70;2.25;;;13.40;99.90;;;;;;4993022;28;20092;-89
2021/06/23 03:48:50;;;;;;;10.88;1.65;;;13.40;99.90;;;;;;4993302;28;20050;-89
2021/06/23 03:51:16;;;;;;;6.65;1.42;;;13.40;99.90;;;;;;4994303;28;20038;-89
2021/06/23 03:53:42;;;;;;;17.58;3.20;;;13.30;99.90;;;;;;4977775;28;20077;-89
2021/06/23 03:56:08;;;;;;;17.23;3.05;;;13.30;99.90;;;;;;4977066;28;20038;-89
2021/06/23 03:58:34;;;;;;;9.93;1.75;;;13.30;99.90;;;;;;4961116;28;20107;-88
2021/06/23 04:01:00;;;;;;;13.13;2.53;;;13.30;99.90;;;;;;4977191;28;20482;-88
2021/06/23 04:03:26;;;;;;;10.38;1.98;;;13.30;99.90;;;;;;4961203;28;20429;-88
2021/06/23 04:05:52;;;;;;;11.25;2.05;;;13.30;99.90;;;;;;4960948;28;20045;-88
2021/06/23 04:08:18;;;;;;;11.43;1.92;;;13.20;99.90;;;;;;4960924;28;20042;-89
2021/06/23 04:10:44;;;;;;;11.63;1.70;;;13.20;99.90;;;;;;4960858;28;20042;-89
2021/06/23 04:13:10;;;;;;;9.20;2.30;;;13.20;99.90;;;;;;4945018;28;20084;-89
2021/06/23 04:15:36;;;;;;;20.98;3.58;;;13.20;99.90;;;;;;4960675;28;20474;-90
2021/06/23 04:18:02;;;;;;;10.43;2.13;;;13.10;99.90;;;;;;4959591;28;20534;-88
2021/06/23 04:20:28;;;;;;;9.95;1.50;;;13.10;99.90;;;;;;4975747;28;20073;-89
2021/06/23 04:22:54;;;;;;;8.00;1.95;;;13.20;99.90;;;;;;4958791;28;20069;-90
2021/06/23 04:25:20;;;;;;;12.85;2.05;;;13.10;99.90;;;;;;4975286;28;20474;-89
2021/06/23 04:27:49;;;;;;;8.10;1.57;;;13.10;99.90;;;;;;4964188;28;20157;-89
2021/06/23 04:30:16;;;;;;;11.70;1.80;;;13.10;99.90;;;;;;4978247;28;20522;-93
2021/06/23 04:32:42;;;;;;;17.17;2.25;;;13.10;99.90;;;;;;4962187;28;20077;-90
2021/06/23 04:35:09;;;;;;;15.18;2.08;;;13.00;99.90;;;;;;4978609;28;20065;-88
2021/06/23 04:37:37;;;;;;;8.38;1.88;;;12.80;99.90;;;;;;4995834;28;20038;-87
2021/06/23 04:40:06;;;;;;;21.65;2.67;;;12.50;99.90;;;;;;4977937;28;20074;-86
2021/06/23 04:42:32;;;;;;;23.70;3.17;;;12.40;99.90;;;;;;4977368;28;20042;-85
2021/06/23 04:44:57;;;;;;;16.55;2.63;;;12.40;99.90;;;;;;4961697;28;20097;-85
2021/06/23 04:47:23;;;;;;;23.55;3.40;;;12.20;99.90;;;;;;4976936;28;20509;-85
2021/06/23 04:49:50;;;;;;;17.70;2.63;;;12.20;99.90;;;;;;4977887;28;20070;-85
2021/06/23 04:52:16;;;;;;;13.27;2.22;;;12.20;99.90;;;;;;4961316;28;20073;-88
2021/06/23 04:54:41;;;;;;;22.60;3.65;;;12.10;99.90;;;;;;4994702;28;20463;-86
2021/06/23 04:57:07;;;;;;;15.77;2.97;;;12.10;99.90;;;;;;4977512;28;20043;-85
2021/06/23 04:59:33;;;;;;;38.35;2.70;;;12.00;99.90;;;;;;4994259;28;20044;-85
2021/06/23 05:01:59;;;;;;;12.15;2.95;;;12.00;99.90;;;;;;4977232;28;20047;-86
2021/06/23 05:04:25;;;;;;;32.38;4.55;;;12.00;99.90;;;;;;4992809;28;20053;-86
2021/06/23 05:06:51;;;;;;;14.23;3.45;;;12.00;99.90;;;;;;4977009;28;20042;-85
2021/06/23 05:09:17;;;;;;;17.83;3.55;;;12.00;99.90;;;;;;4993112;28;20526;-88
2021/06/23 05:11:43;;;;;;;18.45;2.47;;;12.00;99.90;;;;;;4994333;28;20478;-84
2021/06/23 05:14:10;;;;;;;19.67;2.80;;;12.10;99.90;;;;;;4977263;28;20101;-84
2021/06/23 05:16:37;;;;;;;18.75;3.97;;;12.20;99.90;;;;;;4993657;28;20502;-84
2021/06/23 05:19:03;;;;;;;13.75;2.33;;;12.20;99.90;;;;;;4993036;28;20042;-84
2021/06/23 05:21:33;;;;;;;15.50;3.10;;;12.30;99.90;;;;;;4992633;28;20046;-84
2021/06/23 05:24:00;;;;;;;14.98;2.40;;;12.30;99.90;;;;;;4992882;28;20046;-85
2021/06/23 05:26:25;;;;;;;9.90;2.80;;;12.40;99.90;;;;;;4992316;28;20046;-86
2021/06/23 05:28:51;;;;;;;16.33;2.63;;;12.30;99.90;;;;;;4976654;28;20046;-85
2021/06/23 05:31:17;;;;;;;17.55;2.72;;;12.30;99.90;;;;;;4994200;28;20514;-86
2021/06/23 05:33:43;;;;;;;9.95;2.17;;;12.40;99.90;;;;;;4993343;28;20061;-85
2021/06/23 05:36:09;;;;;;;8.82;1.92;;;12.40;99.90;;;;;;4976589;28;20046;-85
2021/06/23 05:38:34;;;;;;;14.55;2.55;;;12.40;99.90;;;;;;4991383;28;20042;-84
2021/06/23 05:41:00;;;;;;;12.75;2.45;;;12.40;99.90;;;;;;4993453;28;20065;-84
2021/06/23 05:43:26;;;;;;;18.20;3.13;;;12.40;99.90;;;;;;4993439;28;20486;-85
2021/06/23 05:45:52;;;;;;;12.00;2.10;;;12.40;99.90;;;;;;4976348;28;20102;-85
2021/06/23 05:48:18;;;;;;;14.77;2.78;;;12.40;99.90;;;;;;4960405;28;20434;-87
2021/06/23 05:50:45;;;;;;;12.23;2.30;;;12.30;99.90;;;;;;4975952;28;20048;-85
2021/06/23 05:53:11;;;;;;;11.55;2.58;;;12.30;99.90;;;;;;4960638;28;20092;-86
2021/06/23 05:55:39;;;;;;;12.73;3.22;;;12.20;99.90;;;;;;4976066;28;20043;-85
2021/06/23 05:58:05;;;;;;;15.93;3.35;;;12.30;99.90;;;;;;4976177;28;20050;-84
2021/06/23 06:00:31;;;;;;;12.85;2.47;;;12.20;99.90;;;;;;4943651;28;20038;-85
2021/06/23 06:02:57;;;;;;;12.30;2.30;;;12.30;99.90;;;;;;4993593;28;20047;-86
2021/06/23 06:05:23;;;;;;;12.90;2.53;;;12.20;99.90;;;;;;4975758;28;20138;-88
2021/06/23 06:07:50;;;;;;;11.27;2.40;;;12.20;99.90;;;;;;4959981;28;20126;-84
2021/06/23 06:10:16;;;;;;;15.68;2.97;;;12.20;99.90;;;;;;4993244;28;20441;-84
2021/06/23 06:12:42;;;;;;;12.65;2.58;;;12.20;99.90;;;;;;4975262;28;20062;-86
2021/06/23 06:15:08;;;;;;;6.90;1.75;;;12.20;99.90;;;;;;4975763;28;20052;-86
2021/06/23 06:17:35;;;;;;;10.13;1.77;;;12.20;99.90;;;;;;4992475;28;20049;-84
2021/06/23 06:20:00;;;;;;;8.85;2.30;;;12.20;99.90;;;;;;4976080;28;20053;-84
2021/06/23 06:22:27;;;;;;;14.70;2.88;;;12.20;99.90;;;;;;4975203;28;20478;-85
2021/06/23 06:24:53;;;;;;;10.88;2.95;;;12.30;99.90;;;;;;4993214;28;20039;-87
2021/06/23 06:27:20;;;;;;;13.95;2.67;;;12.40;99.90;;;;;;4976003;28;20125;-85
2021/06/23 06:29:45;;;;;;;13.57;2.35;;;12.40;99.90;;;;;;4959172;28;20545;-85
2021/06/23 06:32:11;;;;;;;11.20;2.45;;;12.50;99.90;;;;;;4959775;28;20042;-85
2021/06/23 06:34:37;;;;;;;7.75;1.80;;;12.50;99.90;;;;;;4992462;28;20482;-85
2021/06/23 06:37:03;;;;;;;12.75;2.83;;;12.50;99.90;;;;;;4959428;28;20099;-85
2021/06/23 06:39:29;;;;;;;6.28;1.80;;;12.50;99.90;;;;;;4974297;28;20085;-86
2021/06/23 06:41:55;;;;;;;8.05;1.80;;;12.60;99.90;;;;;;4975610;28;20086;-83
2021/06/23 06:44:21;;;;;;;12.55;2.70;;;12.60;99.90;;;;;;4992712;28;20434;-84
2021/06/23 06:46:47;;;;;;;9.55;3.05;;;12.60;99.90;;;;;;4974886;28;20081;-84
2021/06/23 06:49:13;;;;;;;7.60;1.92;;;12.60;99.90;;;;;;4959134;28;20042;-85
2021/06/23 06:51:39;;;;;;;11.18;2.03;;;12.70;99.90;;;;;;4974677;28;20486;-85
2021/06/23 06:54:05;;;;;;;10.35;2.08;;;12.70;99.90;;;;;;4992578;28;20070;-85
2021/06/23 06:56:32;;;;;;;11.40;2.20;;;12.70;99.90;;;;;;4991883;28;20069;-84
2021/06/23 06:58:57;;;;;;;11.60;2.30;;;12.80;99.90;;;;;;4975070;28;20038;-85
2021/06/23 07:01:23;;;;;;;13.10;2.25;;;12.80;99.90;;;;;;4959059;28;20053;-85
2021/06/23 07:03:49;;;;;;;13.25;3.40;;;12.80;99.90;;;;;;4974587;28;20049;-84
2021/06/23 07:06:16;;;;;;;11.00;2.03;;;12.80;99.90;;;;;;4959177;28;20049;-84
2021/06/23 07:08:41;;;;;;;13.77;2.10;;;12.80;99.90;;;;;;4991480;28;20409;-83
2021/06/23 07:11:07;;;;;;;12.45;2.33;;;12.80;99.90;;;;;;4992451;28;20050;-85
2021/06/23 07:13:33;;;;;;;11.25;2.83;;;12.80;99.90;;;;;;4974279;28;20042;-84
2021/06/23 07:15:59;;;;;;;6.10;1.85;;;12.80;99.90;;;;;;4959064;28;20065;-84
2021/06/23 07:18:25;;;;;;;11.43;1.88;;;12.90;99.90;;;;;;4992133;28;20050;-84
2021/06/23 07:20:51;;;;;;;11.07;2.80;;;12.80;99.90;;;;;;4974085;28;20046;-84
2021/06/23 07:23:17;;;;;;;14.60;2.53;;;12.90;99.90;;;;;;4974748;28;20474;-85
2021/06/23 07:25:42;;;;;;;16.77;3.00;;;12.90;99.90;;;;;;4991493;28;20053;-86
2021/06/23 07:28:12;;;;;;;7.95;1.92;;;13.00;99.90;;;;;;4958984;28;20542;-86
2021/06/23 07:30:40;;;;;;;12.13;1.90;;;13.00;99.90;;;;;;4958856;28;20042;-84
2021/06/23 07:33:08;;;;;;;12.70;2.10;;;13.00;99.90;;;;;;4975176;28;20485;-85
2021/06/23 07:38:18;;;;;;;13.95;2.25;;;13.10;99.90;;;;;;4991507;28;20125;-85
2021/06/23 07:43:19;;;;;;;8.60;2.08;;;13.20;99.90;;;;;;4991856;28;20083;-85
2021/06/23 07:45:49;;;;;;;16.00;2.72;;;13.20;99.90;;;;;;4990610;28;20050;-85
2021/06/23 07:48:15;;;;;;;17.33;3.10;;;13.20;99.90;;;;;;4988364;28;20039;-87
2021/06/23 07:50:53;;;;;;;10.07;1.85;;;13.30;99.90;;;;;;4957206;28;20046;-86
2021/06/23 07:53:28;;;;;;;16.95;2.53;;;13.30;99.90;;;;;;4959637;28;20474;-87
2021/06/23 07:56:25;;;;;;;9.25;2.00;;;13.40;99.90;;;;;;4958228;28;20042;-85
2021/06/23 08:09:43;;;;;;;7.90;1.98;;;13.60;99.90;;;;;;4961235;28;20077;-89
2021/06/23 08:14:37;;;;;;;11.38;2.20;;;13.60;99.90;;;;;;4974180;28;20049;-85
2021/06/23 08:17:04;;;;;;;6.38;1.55;;;13.70;99.90;;;;;;4974164;28;20038;-85
2021/06/23 08:19:29;;;;;;;7.78;1.60;;;13.70;99.90;;;;;;4974152;28;20073;-86
2021/06/23 08:21:55;;;;;;;7.63;1.65;;;13.70;99.90;;;;;;4973712;28;20172;-86
2021/06/23 08:24:21;;;;;;;13.07;3.47;;;13.70;99.90;;;;;;4974342;28;20501;-85
2021/06/23 08:26:48;;;;;;;7.43;1.95;;;13.70;99.90;;;;;;4991006;28;20051;-85
2021/06/23 08:29:14;;;;;;;9.85;2.10;;;13.70;99.90;;;;;;4974255;28;20046;-85
2021/06/23 08:31:40;;;;;;;15.05;2.20;;;13.80;99.90;;;;;;4990689;28;20034;-85
2021/06/23 08:34:06;;;;;;;12.70;2.63;;;13.80;99.90;;;;;;4991566;28;20120;-85
2021/06/23 08:36:31;;;;;;;16.60;2.15;;;13.80;99.90;;;;;;4958120;28;20042;-84
2021/06/23 08:38:57;;;;;;;7.03;1.85;;;13.70;99.90;;;;;;4973748;28;20627;-85
2021/06/23 08:41:26;;;;;;;9.45;2.13;;;13.70;99.90;;;;;;4973716;28;20058;-85
2021/06/23 08:43:57;;;;;;;13.00;1.90;;;13.70;99.90;;;;;;4973303;28;20046;-85
2021/06/23 08:46:24;;;;;;;8.57;1.63;;;13.70;99.90;;;;;;4991274;28;20046;-85
2021/06/23 08:48:51;;;;;;;11.75;1.73;;;13.70;99.90;;;;;;4973272;28;20084;-87
2021/06/23 08:51:18;;;;;;;13.80;1.58;;;13.70;99.90;;;;;;4991336;28;20072;-85
2021/06/23 08:53:44;;;;;;;17.67;1.80;;;13.80;99.90;;;;;;4990542;28;20486;-85
2021/06/23 08:56:10;;;;;;;8.60;1.15;;;13.80;99.90;;;;;;4941737;28;20070;-86
2021/06/23 08:58:36;;;;;;;9.48;2.42;;;13.80;99.90;;;;;;4973502;28;20114;-90
2021/06/23 09:01:02;;;;;;;9.02;1.88;;;13.80;99.90;;;;;;4973447;28;20053;-86
2021/06/23 09:03:28;;;;;;;11.75;1.92;;;13.80;99.90;;;;;;4973842;28;20069;-85
2021/06/23 09:05:57;;;;;;;4.07;1.30;;;13.80;99.90;;;;;;4990346;28;20384;-87
2021/06/23 09:08:35;;;;;;;9.20;1.70;;;13.80;99.90;;;;;;4991090;28;20056;-84
2021/06/23 09:11:15;;;;;;;9.82;1.60;;;13.80;99.90;;;;;;4990356;28;20516;-86
2021/06/23 09:13:41;;;;;;;9.25;1.65;;;13.80;99.90;;;;;;4977797;28;20073;-89
2021/06/23 09:16:08;;;;;;;7.88;2.08;;;13.90;99.90;;;;;;4994104;28;20144;-86
2021/06/23 09:18:37;;;;;;;8.75;1.75;;;13.90;99.90;;;;;;4961131;28;20042;-86
2021/06/23 09:21:13;;;;;;;10.27;1.67;;;14.00;99.90;;;;;;4993975;28;20046;-85
2021/06/23 09:23:59;;;;;;;8.07;1.55;;;14.00;99.90;;;;;;4976736;28;20042;-89
2021/06/23 09:26:27;;;;;;;8.85;1.60;;;14.10;99.90;;;;;;4994161;28;20046;-85
2021/06/23 09:29:13;;;;;;;9.40;1.73;;;14.00;99.90;;;;;;4976605;28;20129;-85
2021/06/23 09:32:02;;;;;;;8.15;1.55;;;14.00;99.90;;;;;;4976535;28;20049;-91
2021/06/23 09:34:42;;;;;;;14.25;2.08;;;14.00;99.90;;;;;;4994319;28;20042;-85
2021/06/23 09:37:25;;;;;;;4.85;1.50;;;14.00;99.90;;;;;;4994015;28;20058;-84
2021/06/23 09:40:15;;;;;;;11.10;1.38;;;14.10;99.90;;;;;;4975669;28;20073;-84
2021/06/23 09:42:44;;;;;;;4.45;1.25;;;14.10;99.90;;;;;;4993487;28;20061;-88
2021/06/23 09:45:13;;;;;;;14.77;3.58;;;14.10;99.90;;;;;;4992060;28;20450;-85
2021/06/23 09:47:39;;;;;;;8.23;1.63;;;14.20;99.90;;;;;;4992290;28;20133;-85
2021/06/23 09:50:11;;;;;;;10.65;1.83;;;14.20;99.90;;;;;;4991523;28;20042;-84
2021/06/23 09:52:50;;;;;;;5.70;1.23;;;14.30;99.90;;;;;;4993560;28;20042;-85
2021/06/23 09:55:18;;;;;;;8.27;1.67;;;14.30;99.90;;;;;;4993753;28;20066;-85
2021/06/23 09:58:07;;;;;;;9.13;1.45;;;14.30;99.90;;;;;;4975699;28;20177;-89
2021/06/23 10:00:34;;;;;;;8.32;1.48;;;14.50;99.90;;;;;;4975460;28;20089;-84
2021/06/23 10:03:04;;;;;;;9.95;2.38;;;14.60;99.90;;;;;;4959535;28;20208;-84
2021/06/23 10:05:31;;;;;;;11.02;1.80;;;14.70;99.90;;;;;;4992848;28;20045;-84
2021/06/23 10:07:57;;;;;;;10.30;1.80;;;14.70;99.90;;;;;;4992893;28;20047;-84
2021/06/23 10:10:41;;;;;;;13.95;1.58;;;14.70;99.90;;;;;;4975853;28;20449;-84
2021/06/23 10:13:08;;;;;;;7.00;1.52;;;14.70;99.90;;;;;;4993166;28;20038;-84
2021/06/23 10:15:35;;;;;;;5.07;1.48;;;14.60;99.90;;;;;;4992942;28;20073;-83
2021/06/23 10:18:02;;;;;;;9.35;1.70;;;14.70;99.90;;;;;;4959294;28;20284;-85
2021/06/23 10:20:28;;;;;;;10.15;1.45;;;14.70;99.90;;;;;;4992999;28;20038;-85
2021/06/23 10:22:55;;;;;;;11.20;1.85;;;14.70;99.90;;;;;;4992017;28;20538;-86
2021/06/23 10:25:24;;;;;;;6.30;1.75;;;14.80;99.90;;;;;;4975590;28;20050;-86
2021/06/23 10:27:52;;;;;;;8.10;1.95;;;14.80;99.90;;;;;;4959109;28;20070;-85
2021/06/23 10:30:19;;;;;;;12.98;2.00;;;14.80;99.90;;;;;;4975189;28;20105;-86
2021/06/23 10:32:44;;;;;;;9.68;2.10;;;14.90;99.90;;;;;;4992682;28;20093;-88
2021/06/23 10:35:12;;;;;;;9.48;1.88;;;15.00;99.90;;;;;;4958613;28;20054;-87
2021/06/23 10:37:40;;;;;;;8.60;1.52;;;15.00;99.90;;;;;;4973388;28;20042;-86
2021/06/23 10:40:09;;;;;;;10.30;1.83;;;15.10;99.90;;;;;;4991751;28;20133;-86
2021/06/23 10:42:36;;;;;;;7.13;1.67;;;15.20;99.90;;;;;;4975569;28;20113;-86
2021/06/23 10:45:02;;;;;;;12.70;2.03;;;15.20;99.90;;;;;;4992026;28;20293;-86
2021/06/23 10:47:37;;;;;;;12.77;2.25;;;15.20;99.90;;;;;;4959336;28;20471;-86
2021/06/23 10:50:31;;;;;;;19.33;2.10;;;15.20;99.90;;;;;;4992012;28;20470;-86
2021/06/23 10:52:57;;;;;;;12.07;2.05;;;15.50;99.90;;;;;;4974630;28;20039;-85
2021/06/23 10:55:23;;;;;;;14.93;2.10;;;15.40;99.90;;;;;;4975141;28;20043;-87
2021/06/23 10:57:53;;;;;;;10.77;1.98;;;15.30;99.90;;;;;;4973745;28;20437;-86
2021/06/23 11:00:23;;;;;;;10.00;2.10;;;15.30;99.90;;;;;;4958535;28;20053;-86
2021/06/23 11:02:58;;;;;;;6.72;1.48;;;15.30;99.90;;;;;;4974408;28;20491;-89
2021/06/23 11:05:51;;;;;;;16.55;2.63;;;15.30;99.90;;;;;;4965475;28;20133;-86
2021/06/23 11:08:20;;;;;;;8.13;1.83;;;15.30;99.90;;;;;;4975661;28;20048;-87
2021/06/23 11:10:48;;;;;;;8.05;1.85;;;15.40;99.90;;;;;;4959252;28;20393;-89
2021/06/23 11:13:19;;;;;;;15.10;2.20;;;15.40;99.90;;;;;;4975419;28;20080;-87
2021/06/23 11:15:49;;;;;;;14.00;2.00;;;15.50;99.90;;;;;;4992350;28;20042;-87
2021/06/23 11:18:37;;;;;;;11.00;1.42;;;15.50;99.90;;;;;;4991954;28;20047;-87
2021/06/23 11:21:06;;;;;;;10.10;1.98;;;15.50;99.90;;;;;;4974478;28;20088;-87
2021/06/23 11:23:59;;;;;;;14.65;2.17;;;15.50;99.90;;;;;;4990928;28;20089;-87
2021/06/23 11:26:27;;;;;;;7.47;1.65;;;15.60;99.90;;;;;;4991475;28;20046;-87
2021/06/23 11:28:55;;;;;;;4.22;1.55;;;15.70;99.90;;;;;;4991935;28;20089;-88
2021/06/23 11:35:20;;;;;;;11.65;1.83;;;15.70;99.90;;;;;;4934635;28;20168;-89
2021/06/23 11:41:26;;;;;;;9.05;1.70;;;15.90;99.90;;;;;;4920010;29;20063;-87
2021/06/23 11:43:52;;;;;;;6.60;1.45;;;15.90;99.90;;;;;;4867864;29;20056;-88
2021/06/23 11:46:18;;;;;;;8.60;1.77;;;15.80;99.90;;;;;;4882467;29;20416;-89
2021/06/23 11:48:44;;;;;;;11.50;1.70;;;15.70;99.90;;;;;;4914042;29;20436;-90
2021/06/23 11:51:11;;;;;;;9.50;2.17;;;15.80;99.90;;;;;;4913524;29;20048;-89
2021/06/23 11:53:38;;;;;;;12.25;2.17;;;16.00;99.90;;;;;;4898193;29;20435;-89
2021/06/23 11:56:04;;;;;;;10.40;1.95;;;16.00;99.90;;;;;;4898276;29;20059;-87
2021/06/23 11:58:30;;;;;;;14.02;2.35;;;16.00;99.90;;;;;;4913470;29;20090;-90
2021/06/23 12:00:56;;;;;;;7.10;1.73;;;16.10;99.90;;;;;;4865937;29;20103;-87
2021/06/23 12:03:22;;;;;;;8.13;1.40;;;16.10;99.90;;;;;;4912967;29;20051;-88
2021/06/23 12:05:49;;;;;;;11.48;1.98;;;16.00;99.90;;;;;;4958357;28;20117;-87
2021/06/23 12:08:15;;;;;;;14.05;2.20;;;15.90;99.90;;;;;;4972128;28;20038;-88
2021/06/23 12:10:42;;;;;;;12.73;1.88;;;15.90;99.90;;;;;;4955016;28;20043;-87
2021/06/23 12:13:10;;;;;;;12.85;1.63;;;16.00;99.90;;;;;;4971848;28;20126;-88
2021/06/23 12:15:37;;;;;;;11.02;3.33;;;16.10;99.90;;;;;;4955351;28;20058;-88
2021/06/23 12:18:08;;;;;;;7.60;1.48;;;16.20;99.90;;;;;;4954992;28;20051;-88
2021/06/23 12:20:37;;;;;;;6.65;1.70;;;16.10;99.90;;;;;;4939304;28;20039;-87
2021/06/23 12:23:05;;;;;;;11.63;1.92;;;16.10;99.90;;;;;;4954688;28;20042;-88
2021/06/23 12:25:33;;;;;;;8.95;2.17;;;16.00;99.90;;;;;;4972695;28;20043;-89
2021/06/23 12:28:02;;;;;;;8.55;1.58;;;15.90;99.90;;;;;;4972185;28;20463;-88
2021/06/23 12:30:28;;;;;;;9.48;1.92;;;15.70;99.90;;;;;;4972756;28;20042;-89
2021/06/23 12:32:56;;;;;;;9.35;2.17;;;15.70;99.90;;;;;;4955065;28;20039;-90
2021/06/23 12:35:22;;;;;;;12.43;1.83;;;15.70;99.90;;;;;;4972143;28;20128;-89
2021/06/23 12:37:48;;;;;;;15.93;2.13;;;15.70;99.90;;;;;;4938826;28;20055;-88
2021/06/23 12:40:14;;;;;;;12.50;1.92;;;15.60;99.90;;;;;;4942167;28;20066;-88
2021/06/23 12:42:40;;;;;;;10.23;1.65;;;15.70;99.90;;;;;;4974608;28;20590;-88
2021/06/23 12:45:06;;;;;;;13.38;1.98;;;15.70;99.90;;;;;;4974060;28;20038;-88
2021/06/23 12:47:32;;;;;;;9.77;2.03;;;15.60;99.90;;;;;;4960831;28;20049;-88
2021/06/23 12:49:58;;;;;;;16.70;1.88;;;15.60;99.90;;;;;;4946135;28;20050;-90
2021/06/23 12:52:24;;;;;;;13.40;2.15;;;15.60;99.90;;;;;;4962260;28;20053;-90
2021/06/23 12:54:50;;;;;;;8.48;2.38;;;15.70;99.90;;;;;;4977927;28;20046;-88
2021/06/23 12:57:16;;;;;;;12.45;2.15;;;15.70;99.90;;;;;;4960960;28;20054;-89
2021/06/23 12:59:42;;;;;;;10.57;2.17;;;15.60;99.90;;;;;;4977322;28;20108;-89
2021/06/23 13:02:08;;;;;;;7.40;1.58;;;15.60;99.90;;;;;;4977237;28;20054;-88
2021/06/23 13:04:33;;;;;;;12.85;1.85;;;15.50;99.90;;;;;;4945871;28;20446;-88
2021/06/23 13:06:59;;;;;;;12.63;1.88;;;15.40;99.90;;;;;;4977906;28;20038;-91
2021/06/23 13:09:45;;;;;;;10.88;1.73;;;15.50;99.90;;;;;;4941038;28;20058;-89
2021/06/23 13:12:11;;;;;;;12.27;2.22;;;15.60;99.90;;;;;;4977555;28;20056;-88
2021/06/23 13:14:37;;;;;;;14.13;2.47;;;15.60;99.90;;;;;;4978157;28;20150;-88
2021/06/23 13:17:04;;;;;;;10.73;2.00;;;15.50;99.90;;;;;;4977855;28;20046;-89